Time;durP1;ratioP1;P1;durP2;ratioP2;P2;SDS_P1;SDS_P2;PMS_P1;PMS_P2;Temp;Humidity;BMP_temperature;BMP_pressure;BME280_temperature;BME280_humidity;BME280_pressure;Samples;Min_cycle;Max_cycle;Signal;HPM_P1;HPM_P2
2023/04/30 00:00:37;;;;;;;8.83;4.30;;;7.30;99.90;;;;;;5012919;28;20935;-71
2023/04/30 00:03:05;;;;;;;9.67;4.83;;;7.30;99.90;;;;;;5012760;28;20471;-71
2023/04/30 00:05:33;;;;;;;8.63;4.87;;;7.30;99.90;;;;;;5013439;28;20440;-71
2023/04/30 00:08:01;;;;;;;7.00;5.03;;;7.20;99.90;;;;;;5012789;28;20451;-71
2023/04/30 00:10:29;;;;;;;10.63;5.63;;;7.20;99.90;;;;;;5012826;28;20508;-71
2023/04/30 00:12:57;;;;;;;9.97;6.07;;;7.20;99.90;;;;;;5012989;28;20537;-71
2023/04/30 00:15:25;;;;;;;12.70;5.57;;;7.20;99.90;;;;;;5012785;28;20468;-71
2023/04/30 00:17:55;;;;;;;10.27;5.50;;;7.10;99.90;;;;;;5013046;28;20452;-71
2023/04/30 00:20:23;;;;;;;12.30;5.50;;;7.10;99.90;;;;;;5012900;28;20429;-71
2023/04/30 00:22:51;;;;;;;9.70;5.40;;;7.10;99.90;;;;;;5013013;28;20522;-71
2023/04/30 00:25:19;;;;;;;8.60;5.93;;;7.10;99.90;;;;;;5012631;28;20500;-71
2023/04/30 00:27:48;;;;;;;10.03;5.20;;;7.00;99.90;;;;;;5012717;28;20439;-71
2023/04/30 00:30:16;;;;;;;9.73;5.67;;;7.00;99.90;;;;;;5012601;28;21008;-71
2023/04/30 00:32:44;;;;;;;8.60;5.40;;;7.00;99.90;;;;;;5011597;28;20935;-71
2023/04/30 00:35:15;;;;;;;10.27;5.90;;;7.00;99.90;;;;;;5012489;28;20514;-71
2023/04/30 00:37:43;;;;;;;10.63;6.27;;;7.00;99.90;;;;;;5011316;28;21010;-71
2023/04/30 00:40:12;;;;;;;8.40;6.03;;;6.90;99.90;;;;;;5011462;28;20537;-71
2023/04/30 00:42:40;;;;;;;13.80;6.07;;;6.90;99.90;;;;;;5011832;28;20473;-71
2023/04/30 00:45:09;;;;;;;9.70;5.93;;;6.90;99.90;;;;;;5014881;28;20491;-71
2023/04/30 00:47:37;;;;;;;9.43;5.73;;;6.90;99.90;;;;;;5015968;28;20439;-71
2023/04/30 00:50:06;;;;;;;9.20;5.77;;;6.90;99.90;;;;;;5016206;28;20428;-71
2023/04/30 00:52:36;;;;;;;13.73;6.10;;;6.80;99.90;;;;;;5014592;28;20868;-71
2023/04/30 00:55:04;;;;;;;9.43;5.77;;;6.80;99.90;;;;;;5015115;28;20509;-71
2023/04/30 00:57:35;;;;;;;8.10;5.27;;;6.80;99.90;;;;;;5015814;28;20860;-71
2023/04/30 01:00:05;;;;;;;6.93;5.00;;;6.80;99.90;;;;;;5014841;28;20449;-72
2023/04/30 01:02:33;;;;;;;9.13;5.77;;;6.80;99.90;;;;;;5019034;28;20449;-72
2023/04/30 01:05:02;;;;;;;9.07;4.90;;;6.70;99.90;;;;;;5019700;28;20982;-71
2023/04/30 01:07:31;;;;;;;8.20;6.10;;;6.70;99.90;;;;;;5019222;28;20441;-71
2023/04/30 01:10:00;;;;;;;10.13;5.50;;;6.70;99.90;;;;;;5017475;28;20442;-71
2023/04/30 01:12:37;;;;;;;8.83;5.63;;;6.70;99.90;;;;;;5019003;28;20446;-71
2023/04/30 01:15:14;;;;;;;9.37;5.40;;;6.60;99.90;;;;;;5015369;28;20469;-71
2023/04/30 01:17:47;;;;;;;9.27;5.30;;;6.60;99.90;;;;;;5016712;28;20420;-71
2023/04/30 01:20:15;;;;;;;8.53;5.77;;;6.60;99.90;;;;;;5015730;28;20445;-71
2023/04/30 01:22:50;;;;;;;6.50;5.40;;;6.50;99.90;;;;;;5015786;28;20437;-71
2023/04/30 01:25:52;;;;;;;8.67;6.00;;;6.50;99.90;;;;;;5016235;28;20476;-71
2023/04/30 01:28:23;;;;;;;9.63;5.50;;;6.50;99.90;;;;;;5005297;28;20540;-71
2023/04/30 01:30:52;;;;;;;9.70;5.73;;;6.50;99.90;;;;;;5014305;28;20847;-71
2023/04/30 01:33:20;;;;;;;8.60;5.70;;;6.40;99.90;;;;;;5013985;28;20463;-71
2023/04/30 01:36:01;;;;;;;8.20;6.00;;;6.40;99.90;;;;;;5014699;28;20547;-71
2023/04/30 01:38:45;;;;;;;8.37;6.00;;;6.40;99.90;;;;;;5015535;28;20415;-71
2023/04/30 01:41:26;;;;;;;8.50;5.77;;;6.30;99.90;;;;;;5015523;28;20830;-71
2023/04/30 01:44:17;;;;;;;8.90;5.63;;;6.30;99.90;;;;;;5013925;28;20525;-71
2023/04/30 01:46:54;;;;;;;9.40;6.17;;;6.30;99.90;;;;;;5015020;28;20422;-71
2023/04/30 01:49:30;;;;;;;12.23;5.93;;;6.20;99.90;;;;;;5013604;28;20848;-71
2023/04/30 01:52:08;;;;;;;6.50;5.23;;;6.20;99.90;;;;;;5013530;28;20930;-71
2023/04/30 01:54:45;;;;;;;7.33;5.83;;;6.20;99.90;;;;;;5012617;28;20894;-71
2023/04/30 01:57:18;;;;;;;10.57;6.13;;;6.10;99.90;;;;;;5013725;28;20463;-71
2023/04/30 01:59:47;;;;;;;11.90;8.37;;;6.10;99.90;;;;;;5013405;28;20451;-71
2023/04/30 02:02:16;;;;;;;10.20;7.50;;;6.10;99.90;;;;;;5013552;28;20522;-71
2023/04/30 02:04:45;;;;;;;8.77;6.80;;;6.10;99.90;;;;;;5014513;28;20469;-71
2023/04/30 02:07:23;;;;;;;10.27;6.47;;;6.00;99.90;;;;;;5013135;28;21025;-71
2023/04/30 02:09:51;;;;;;;11.10;6.97;;;6.00;99.90;;;;;;5013180;28;20542;-71
2023/04/30 02:12:19;;;;;;;9.70;6.40;;;6.00;99.90;;;;;;5014618;28;20439;-71
2023/04/30 02:14:49;;;;;;;10.13;7.77;;;6.00;99.90;;;;;;5012929;28;20987;-71
2023/04/30 02:17:17;;;;;;;10.30;7.67;;;5.90;99.90;;;;;;5014484;28;20432;-71
2023/04/30 02:19:45;;;;;;;10.80;7.30;;;5.90;99.90;;;;;;5012803;28;20979;-71
2023/04/30 02:22:13;;;;;;;9.73;6.47;;;5.90;99.90;;;;;;5014088;28;20850;-71
2023/04/30 02:24:41;;;;;;;10.07;6.53;;;5.90;99.90;;;;;;5014283;28;20993;-71
2023/04/30 02:27:09;;;;;;;8.27;6.23;;;5.80;99.90;;;;;;5014432;28;20442;-71
2023/04/30 02:29:38;;;;;;;7.33;6.30;;;5.80;99.90;;;;;;5012820;28;20448;-71
2023/04/30 02:32:07;;;;;;;7.03;6.13;;;5.80;99.90;;;;;;5014213;28;20501;-71
2023/04/30 02:34:35;;;;;;;9.63;6.50;;;5.80;99.90;;;;;;5014054;28;20831;-71
2023/04/30 02:37:03;;;;;;;11.27;6.03;;;5.70;99.90;;;;;;5013962;28;20464;-71
2023/04/30 02:39:31;;;;;;;12.60;6.70;;;5.70;99.90;;;;;;5012765;28;20463;-71
2023/04/30 02:42:00;;;;;;;10.93;6.53;;;5.70;99.90;;;;;;5014118;28;20949;-71
2023/04/30 02:44:29;;;;;;;8.30;6.23;;;5.70;99.90;;;;;;5012348;28;20487;-71
2023/04/30 02:46:57;;;;;;;8.40;6.60;;;5.60;99.90;;;;;;5012390;28;20450;-71
2023/04/30 02:49:26;;;;;;;10.30;7.47;;;5.60;99.90;;;;;;5012350;28;20452;-71
2023/04/30 02:51:54;;;;;;;10.27;7.17;;;5.60;99.90;;;;;;5012405;28;20506;-71
2023/04/30 02:54:23;;;;;;;8.67;6.43;;;5.60;99.90;;;;;;5012226;28;20460;-71
2023/04/30 02:56:51;;;;;;;9.33;6.30;;;5.50;99.90;;;;;;5013568;28;20527;-71
2023/04/30 02:59:19;;;;;;;10.83;7.30;;;5.50;99.90;;;;;;5012247;28;20510;-71
2023/04/30 03:01:47;;;;;;;11.40;7.00;;;5.50;99.90;;;;;;5013598;28;20436;-71
2023/04/30 03:04:15;;;;;;;13.00;6.97;;;5.50;99.90;;;;;;5016818;28;20471;-71
2023/04/30 03:06:44;;;;;;;9.20;6.47;;;5.40;99.90;;;;;;5013153;28;20448;-71
2023/04/30 03:09:14;;;;;;;10.70;6.43;;;5.40;99.90;;;;;;5012795;28;20543;-71
2023/04/30 03:11:42;;;;;;;10.83;7.77;;;5.40;99.90;;;;;;5012278;28;20444;-71
2023/04/30 03:14:13;;;;;;;15.40;7.00;;;5.40;99.90;;;;;;5013329;28;20491;-71
2023/04/30 03:16:41;;;;;;;10.27;7.17;;;5.40;99.90;;;;;;5014153;28;20442;-71
2023/04/30 03:19:09;;;;;;;8.57;7.03;;;5.30;99.90;;;;;;5012115;28;20515;-71
2023/04/30 03:21:37;;;;;;;10.87;7.97;;;5.30;99.90;;;;;;5012115;28;20447;-71
2023/04/30 03:24:07;;;;;;;11.40;6.67;;;5.30;99.90;;;;;;5013019;28;20472;-71
2023/04/30 03:26:35;;;;;;;11.10;6.73;;;5.30;99.90;;;;;;5013383;28;20454;-71
2023/04/30 03:29:03;;;;;;;9.40;6.17;;;5.30;99.90;;;;;;5011869;28;20459;-71
2023/04/30 03:31:31;;;;;;;9.00;7.00;;;5.20;99.90;;;;;;5013404;28;20440;-71
2023/04/30 03:33:59;;;;;;;12.17;6.43;;;5.20;99.90;;;;;;5011840;28;20463;-71
2023/04/30 03:36:27;;;;;;;9.10;7.20;;;5.20;99.90;;;;;;5011869;28;20450;-71
2023/04/30 03:38:56;;;;;;;11.33;6.70;;;5.20;99.90;;;;;;5012024;28;20538;-71
2023/04/30 03:41:25;;;;;;;9.57;5.97;;;5.20;99.90;;;;;;5011715;28;20440;-71
2023/04/30 03:43:54;;;;;;;9.57;6.37;;;5.10;99.90;;;;;;5011599;28;20518;-71
2023/04/30 03:46:22;;;;;;;9.00;6.27;;;5.10;99.90;;;;;;5011763;28;20444;-71
2023/04/30 03:48:50;;;;;;;9.37;6.50;;;5.10;99.90;;;;;;5011914;28;20551;-71
2023/04/30 03:51:19;;;;;;;13.10;6.93;;;5.00;99.90;;;;;;5013191;28;20471;-71
2023/04/30 03:53:47;;;;;;;7.40;6.03;;;5.00;99.90;;;;;;5011667;28;20844;-71
2023/04/30 03:56:16;;;;;;;7.70;6.80;;;5.00;99.90;;;;;;5011949;28;20446;-71
2023/04/30 03:58:46;;;;;;;10.07;7.10;;;5.00;99.90;;;;;;5011582;28;20506;-71
2023/04/30 04:01:14;;;;;;;8.30;6.90;;;5.00;99.90;;;;;;5012875;28;20432;-71
2023/04/30 04:03:42;;;;;;;9.80;6.57;;;5.00;99.90;;;;;;5011545;28;20464;-71
2023/04/30 04:06:10;;;;;;;9.47;7.17;;;4.90;99.90;;;;;;5011530;28;20467;-71
2023/04/30 04:08:41;;;;;;;9.17;6.60;;;4.90;99.90;;;;;;5012910;28;20965;-71
2023/04/30 04:11:10;;;;;;;8.57;6.07;;;4.90;99.90;;;;;;5012418;28;20440;-71
2023/04/30 04:13:38;;;;;;;12.30;6.93;;;4.90;99.90;;;;;;5011586;28;20534;-71
2023/04/30 04:16:08;;;;;;;8.60;6.43;;;4.90;99.90;;;;;;5011542;28;20452;-71
2023/04/30 04:18:36;;;;;;;10.87;7.30;;;4.80;99.90;;;;;;5013621;28;20451;-71
2023/04/30 04:21:05;;;;;;;11.07;6.83;;;4.80;99.90;;;;;;5016903;28;20440;-71
2023/04/30 04:23:34;;;;;;;11.30;7.53;;;4.80;99.90;;;;;;5015342;28;20945;-71
2023/04/30 04:26:02;;;;;;;8.93;6.30;;;4.80;99.90;;;;;;5015240;28;20503;-71
2023/04/30 04:28:30;;;;;;;9.27;7.37;;;4.80;99.90;;;;;;5015030;28;20857;-71
2023/04/30 04:30:59;;;;;;;12.87;7.83;;;4.80;99.90;;;;;;5015249;28;20462;-71
2023/04/30 04:33:29;;;;;;;9.00;6.47;;;4.80;99.90;;;;;;5014845;28;20477;-71
2023/04/30 04:35:57;;;;;;;9.30;6.70;;;4.80;99.90;;;;;;5014922;28;20966;-71
2023/04/30 04:38:26;;;;;;;11.33;7.53;;;4.80;99.90;;;;;;5014904;28;20445;-71
2023/04/30 04:40:55;;;;;;;8.90;7.17;;;4.80;99.90;;;;;;5015077;28;20451;-71
2023/04/30 04:43:24;;;;;;;13.93;7.90;;;4.80;99.90;;;;;;5014701;28;20479;-71
2023/04/30 04:45:52;;;;;;;13.13;7.53;;;4.80;99.90;;;;;;5014571;28;20471;-71
2023/04/30 04:48:20;;;;;;;9.37;7.40;;;4.80;99.90;;;;;;5014344;28;20463;-71
2023/04/30 04:50:49;;;;;;;10.23;7.50;;;4.80;99.90;;;;;;5016054;28;20547;-71
2023/04/30 04:53:17;;;;;;;9.37;6.83;;;4.80;99.90;;;;;;5014432;28;20946;-71
2023/04/30 04:55:46;;;;;;;12.27;7.47;;;4.80;99.90;;;;;;5014672;28;20448;-71
2023/04/30 04:58:14;;;;;;;9.03;7.63;;;4.80;99.90;;;;;;5014414;28;20448;-71
2023/04/30 05:00:42;;;;;;;13.50;7.13;;;4.80;99.90;;;;;;5014316;28;20943;-71
2023/04/30 05:03:11;;;;;;;11.30;7.70;;;4.80;99.90;;;;;;5014257;28;20448;-71
2023/04/30 05:05:39;;;;;;;11.10;8.00;;;4.90;99.90;;;;;;5015913;28;20475;-71
2023/04/30 05:08:08;;;;;;;23.10;8.00;;;4.90;99.90;;;;;;5014383;28;20852;-71
2023/04/30 05:10:36;;;;;;;12.60;8.10;;;4.90;99.90;;;;;;5015806;28;20462;-71
2023/04/30 05:13:04;;;;;;;13.63;9.07;;;4.90;99.90;;;;;;5015443;28;20432;-71
2023/04/30 05:15:32;;;;;;;12.63;7.63;;;4.90;99.90;;;;;;5015503;28;20436;-72
2023/04/30 05:18:00;;;;;;;8.97;7.23;;;4.90;99.90;;;;;;5015487;28;20436;-71
2023/04/30 05:20:28;;;;;;;11.40;8.20;;;5.00;99.90;;;;;;5015439;28;20435;-72
2023/04/30 05:22:56;;;;;;;11.70;8.43;;;5.00;99.90;;;;;;5015541;28;20432;-71
2023/04/30 05:25:26;;;;;;;12.43;8.43;;;5.00;99.90;;;;;;5013997;28;20495;-71
2023/04/30 05:27:55;;;;;;;10.43;8.50;;;5.00;99.90;;;;;;5015302;28;20970;-71
2023/04/30 05:30:23;;;;;;;10.53;8.53;;;5.10;99.90;;;;;;5014439;28;20938;-71
2023/04/30 05:32:51;;;;;;;12.50;8.00;;;5.10;99.90;;;;;;5015498;28;20436;-71
2023/04/30 05:35:20;;;;;;;18.17;9.63;;;5.10;99.90;;;;;;5015228;28;20443;-71
2023/04/30 05:37:48;;;;;;;14.70;9.77;;;5.20;99.90;;;;;;5015231;28;20436;-71
2023/04/30 05:40:16;;;;;;;12.97;9.77;;;5.20;99.90;;;;;;5015467;28;20838;-71
2023/04/30 05:42:46;;;;;;;16.73;10.27;;;5.30;99.90;;;;;;5014989;28;20955;-71
2023/04/30 05:45:16;;;;;;;12.13;9.20;;;5.30;99.90;;;;;;5014689;28;20479;-72
2023/04/30 05:47:44;;;;;;;14.60;9.73;;;5.40;99.90;;;;;;5015016;28;20436;-71
2023/04/30 05:50:12;;;;;;;14.27;8.90;;;5.50;99.90;;;;;;5013905;28;20433;-71
2023/04/30 05:52:40;;;;;;;13.23;9.30;;;5.60;99.90;;;;;;5014644;28;20510;-71
2023/04/30 05:55:09;;;;;;;14.00;9.20;;;5.70;99.90;;;;;;5014430;28;20459;-71
2023/04/30 05:57:37;;;;;;;14.63;9.57;;;5.90;99.90;;;;;;5014657;28;20440;-71
2023/04/30 06:00:08;;;;;;;11.80;9.73;;;6.20;99.90;;;;;;5014817;28;20444;-71
2023/04/30 06:02:39;;;;;;;13.70;9.87;;;6.40;99.90;;;;;;5014902;28;20431;-71
2023/04/30 06:05:08;;;;;;;11.93;8.97;;;6.70;99.90;;;;;;5014364;28;20553;-71
2023/04/30 06:07:36;;;;;;;12.87;8.97;;;7.00;99.90;;;;;;5014443;28;20797;-71
2023/04/30 06:10:06;;;;;;;12.90;8.80;;;7.30;99.90;;;;;;5014898;28;20445;-71
2023/04/30 06:12:34;;;;;;;13.47;9.27;;;7.50;99.90;;;;;;5014351;28;20454;-71
2023/04/30 06:15:02;;;;;;;13.10;8.43;;;7.80;99.90;;;;;;5014303;28;20484;-71
2023/04/30 06:17:32;;;;;;;21.50;16.00;;;8.10;99.90;;;;;;5014295;28;20470;-71
2023/04/30 06:20:05;;;;;;;9.70;8.17;;;8.40;99.90;;;;;;5014195;28;20440;-71
2023/04/30 06:22:33;;;;;;;13.10;7.80;;;8.80;99.90;;;;;;5014699;28;20908;-71
2023/04/30 06:25:02;;;;;;;10.00;7.90;;;9.10;99.90;;;;;;5014054;28;20464;-71
2023/04/30 06:27:31;;;;;;;15.87;7.13;;;9.30;99.90;;;;;;5014606;28;20558;-71
2023/04/30 06:29:59;;;;;;;10.57;5.60;;;9.60;99.90;;;;;;5014095;28;20444;-71
2023/04/30 06:32:28;;;;;;;9.60;5.73;;;9.80;99.90;;;;;;5014255;28;20947;-71
2023/04/30 06:34:58;;;;;;;12.10;9.27;;;10.00;99.90;;;;;;5014066;28;20462;-71
2023/04/30 06:37:27;;;;;;;11.30;6.10;;;10.20;99.90;;;;;;5018868;28;20455;-72
2023/04/30 06:39:55;;;;;;;8.23;5.90;;;10.40;99.90;;;;;;5013884;28;20448;-72
2023/04/30 06:42:23;;;;;;;13.70;5.73;;;10.70;99.90;;;;;;5012812;28;20454;-71
2023/04/30 06:44:52;;;;;;;6.60;5.00;;;10.90;99.90;;;;;;5013963;28;20463;-72
2023/04/30 06:47:20;;;;;;;9.97;5.50;;;11.10;99.90;;;;;;5012693;28;20468;-72
2023/04/30 06:49:48;;;;;;;9.20;4.47;;;11.30;99.90;;;;;;5013996;28;20935;-72
2023/04/30 06:52:18;;;;;;;7.70;4.40;;;11.50;99.90;;;;;;5013725;28;20447;-72
2023/04/30 06:54:46;;;;;;;8.00;4.63;;;11.70;99.90;;;;;;5013531;28;20464;-71
2023/04/30 06:57:14;;;;;;;10.03;4.57;;;11.90;99.90;;;;;;5013725;28;20440;-72
2023/04/30 06:59:43;;;;;;;8.73;4.70;;;12.10;99.90;;;;;;5013633;28;20440;-72
2023/04/30 07:02:11;;;;;;;7.50;3.97;;;12.30;99.90;;;;;;5014034;28;20819;-72
2023/04/30 07:04:39;;;;;;;6.90;4.13;;;12.40;99.90;;;;;;5012221;28;20463;-72
2023/04/30 07:07:07;;;;;;;8.07;4.63;;;12.60;99.90;;;;;;5013528;28;20475;-72
2023/04/30 07:09:37;;;;;;;11.50;5.87;;;12.80;99.90;;;;;;5013420;28;20439;-72
2023/04/30 07:12:05;;;;;;;5.87;3.80;;;12.90;99.90;;;;;;5012364;28;20502;-72
2023/04/30 07:14:33;;;;;;;7.13;4.00;;;13.10;99.90;;;;;;5013915;28;20455;-72
2023/04/30 07:17:01;;;;;;;8.00;4.17;;;13.30;99.90;;;;;;5013265;28;20443;-72
2023/04/30 07:19:29;;;;;;;6.07;3.70;;;13.40;99.90;;;;;;5013250;28;20490;-72
2023/04/30 07:21:57;;;;;;;7.93;3.60;;;13.50;99.90;;;;;;5013504;28;20989;-71
2023/04/30 07:24:25;;;;;;;8.17;4.37;;;13.50;99.90;;;;;;5013095;28;20533;-72
2023/04/30 07:26:54;;;;;;;6.83;3.30;;;13.60;99.90;;;;;;5013228;28;20468;-72
2023/04/30 07:29:22;;;;;;;8.00;4.07;;;13.60;99.90;;;;;;5013105;28;20431;-72
2023/04/30 07:31:50;;;;;;;8.07;4.00;;;13.50;99.90;;;;;;5013224;28;20448;-72
2023/04/30 07:34:18;;;;;;;6.27;3.87;;;13.50;99.90;;;;;;5013006;28;20454;-72
2023/04/30 07:36:48;;;;;;;7.50;4.43;;;13.50;99.90;;;;;;5013077;28;20444;-72
2023/04/30 07:39:16;;;;;;;8.10;4.70;;;13.40;99.90;;;;;;5013022;28;20440;-72
2023/04/30 07:41:44;;;;;;;10.87;5.77;;;13.50;99.90;;;;;;5011743;28;20452;-72
2023/04/30 07:44:14;;;;;;;11.50;6.70;;;13.60;99.90;;;;;;5013088;28;20460;-72
2023/04/30 07:46:42;;;;;;;10.53;6.17;;;13.80;99.90;;;;;;5013036;28;20478;-72
2023/04/30 07:49:10;;;;;;;7.97;5.37;;;14.00;99.90;;;;;;5011587;28;20816;-72
2023/04/30 07:51:38;;;;;;;12.23;5.63;;;14.10;99.90;;;;;;5013204;28;20447;-72
2023/04/30 07:54:06;;;;;;;8.37;5.57;;;14.00;99.90;;;;;;5016020;28;20550;-72
2023/04/30 07:56:34;;;;;;;10.97;4.80;;;13.90;99.90;;;;;;5017418;28;20775;-72
2023/04/30 07:59:03;;;;;;;13.10;5.10;;;13.80;99.90;;;;;;5015678;28;20452;-72
2023/04/30 08:01:32;;;;;;;10.33;5.70;;;13.90;99.90;;;;;;5017098;28;20440;-72
2023/04/30 08:04:00;;;;;;;10.90;5.30;;;13.90;99.90;;;;;;5017005;28;20468;-72
2023/04/30 08:06:28;;;;;;;8.60;4.27;;;14.00;99.90;;;;;;5016795;28;20808;-72
2023/04/30 08:08:56;;;;;;;7.97;4.63;;;14.20;99.90;;;;;;5017097;28;20436;-72
2023/04/30 08:11:24;;;;;;;8.20;4.40;;;14.30;99.90;;;;;;5015408;28;20873;-72
2023/04/30 08:13:53;;;;;;;7.10;4.50;;;14.40;99.90;;;;;;5016738;28;20459;-72
2023/04/30 08:16:21;;;;;;;8.93;5.27;;;14.50;99.90;;;;;;5017045;28;20807;-72
2023/04/30 08:18:50;;;;;;;7.10;4.60;;;14.60;99.90;;;;;;5016570;28;20894;-72
2023/04/30 08:21:18;;;;;;;11.03;5.13;;;14.70;99.90;;;;;;5016390;28;20447;-72
2023/04/30 08:23:46;;;;;;;11.37;4.23;;;14.80;99.90;;;;;;5016397;28;20462;-72
2023/04/30 08:26:14;;;;;;;8.53;4.47;;;14.90;99.90;;;;;;5016504;28;20454;-72
2023/04/30 08:28:42;;;;;;;8.83;4.13;;;15.00;99.90;;;;;;5016655;28;20569;-72
2023/04/30 08:31:12;;;;;;;7.57;4.50;;;15.00;99.90;;;;;;5016646;28;20494;-72
2023/04/30 08:33:40;;;;;;;8.87;4.50;;;15.10;99.90;;;;;;5016471;28;20467;-71
2023/04/30 08:36:10;;;;;;;10.90;4.53;;;15.10;99.90;;;;;;5016176;28;20951;-72
2023/04/30 08:38:38;;;;;;;9.80;5.10;;;15.20;99.90;;;;;;5016241;28;20435;-71
2023/04/30 08:41:11;;;;;;;8.17;4.40;;;15.30;99.90;;;;;;5016389;28;20437;-71
2023/04/30 08:43:40;;;;;;;10.83;4.77;;;15.40;99.90;;;;;;5016262;28;21028;-72
2023/04/30 08:46:08;;;;;;;9.13;4.40;;;15.30;99.90;;;;;;5014865;28;20439;-72
2023/04/30 08:48:37;;;;;;;10.40;4.77;;;15.30;99.90;;;;;;5015947;28;20530;-72
2023/04/30 08:51:05;;;;;;;6.93;4.40;;;15.30;99.90;;;;;;5015968;28;20443;-72
2023/04/30 08:53:37;;;;;;;6.80;4.40;;;15.30;99.90;;;;;;5015818;28;20533;-71
2023/04/30 08:56:06;;;;;;;7.93;4.30;;;15.30;99.80;;;;;;5016370;28;20737;-72
2023/04/30 08:58:34;;;;;;;8.30;4.70;;;15.30;99.60;;;;;;5016253;28;20439;-71
2023/04/30 09:01:03;;;;;;;10.97;4.40;;;15.30;99.60;;;;;;5015813;28;20940;-72
2023/04/30 09:03:31;;;;;;;8.23;3.90;;;15.30;99.40;;;;;;5015514;28;20833;-71
2023/04/30 09:05:59;;;;;;;7.83;4.30;;;15.40;99.50;;;;;;5016021;28;20840;-72
2023/04/30 09:08:46;;;;;;;7.73;4.30;;;15.40;99.50;;;;;;5015615;28;20468;-72
2023/04/30 09:11:22;;;;;;;8.40;4.30;;;15.50;99.20;;;;;;5016283;28;20427;-72
2023/04/30 09:13:52;;;;;;;7.00;4.47;;;15.60;99.30;;;;;;5021678;28;20429;-72
2023/04/30 09:16:21;;;;;;;9.87;4.30;;;15.60;99.10;;;;;;5023547;28;20450;-72
2023/04/30 09:18:49;;;;;;;7.90;4.50;;;15.70;99.00;;;;;;5018438;28;20436;-71
2023/04/30 09:21:30;;;;;;;8.50;4.83;;;15.70;98.90;;;;;;5019031;28;20447;-72
2023/04/30 09:24:01;;;;;;;5.77;3.97;;;15.80;98.70;;;;;;5018665;28;20459;-72
2023/04/30 09:26:32;;;;;;;10.33;4.07;;;15.80;98.60;;;;;;5017266;28;20496;-72
2023/04/30 09:29:06;;;;;;;6.73;3.97;;;15.90;98.50;;;;;;5016805;28;20476;-72
2023/04/30 09:31:35;;;;;;;6.40;3.87;;;15.80;98.20;;;;;;5015031;28;20502;-72
2023/04/30 09:34:04;;;;;;;6.73;3.73;;;15.80;98.00;;;;;;5015534;28;20988;-72
2023/04/30 09:36:33;;;;;;;10.67;4.23;;;15.80;97.90;;;;;;5015721;28;20453;-72
2023/04/30 09:39:10;;;;;;;7.50;4.10;;;15.70;97.70;;;;;;5015440;28;21037;-71
2023/04/30 09:41:45;;;;;;;8.70;4.40;;;15.70;97.50;;;;;;5015648;28;20547;-72
2023/04/30 09:44:28;;;;;;;6.40;3.77;;;15.60;97.60;;;;;;5015605;28;20799;-72
2023/04/30 09:46:57;;;;;;;9.23;4.47;;;15.60;97.20;;;;;;5015254;28;20817;-71
2023/04/30 09:49:27;;;;;;;10.43;4.27;;;15.60;97.30;;;;;;5013785;28;20546;-72
2023/04/30 09:51:56;;;;;;;11.50;3.90;;;15.50;97.20;;;;;;5015068;28;20531;-72
2023/04/30 09:54:27;;;;;;;7.67;4.30;;;15.60;97.20;;;;;;5014814;28;20459;-72
2023/04/30 09:56:57;;;;;;;9.03;3.67;;;15.60;97.20;;;;;;5015282;28;20515;-72
2023/04/30 09:59:30;;;;;;;7.93;3.90;;;15.60;97.10;;;;;;5018125;28;20452;-72
2023/04/30 10:02:00;;;;;;;6.67;3.47;;;15.70;97.10;;;;;;5024633;28;20434;-71
2023/04/30 10:04:32;;;;;;;7.60;3.80;;;15.80;97.30;;;;;;5021395;28;20468;-70
2023/04/30 10:07:02;;;;;;;6.67;3.83;;;15.90;97.30;;;;;;5019208;28;20891;-71
2023/04/30 10:09:38;;;;;;;10.07;4.40;;;16.00;97.10;;;;;;5016730;28;20992;-71
2023/04/30 10:12:12;;;;;;;8.60;4.63;;;16.00;96.90;;;;;;5017879;28;20391;-71
2023/04/30 10:14:45;;;;;;;9.10;4.70;;;15.90;96.70;;;;;;5016099;28;20472;-71
2023/04/30 10:17:16;;;;;;;7.30;4.70;;;15.90;96.80;;;;;;5015726;28;20475;-71
2023/04/30 10:19:48;;;;;;;11.13;4.97;;;15.90;96.70;;;;;;5015951;28;20473;-72
2023/04/30 10:22:17;;;;;;;8.83;4.40;;;15.90;96.50;;;;;;5017072;28;20431;-72
2023/04/30 10:24:48;;;;;;;6.97;4.00;;;15.90;96.50;;;;;;5017699;28;20467;-70
2023/04/30 10:27:16;;;;;;;9.67;4.90;;;15.90;96.30;;;;;;5018980;28;20427;-70
2023/04/30 10:29:46;;;;;;;7.70;4.30;;;15.80;96.10;;;;;;5020081;28;20467;-71
2023/04/30 10:32:15;;;;;;;6.43;3.77;;;15.80;96.10;;;;;;5019558;28;20407;-70
2023/04/30 10:34:51;;;;;;;8.50;4.33;;;15.80;96.20;;;;;;5014578;28;20474;-70
2023/04/30 10:37:27;;;;;;;8.97;4.73;;;15.80;96.20;;;;;;5017663;28;20824;-70
2023/04/30 10:39:57;;;;;;;8.43;4.20;;;15.80;96.20;;;;;;5016807;28;20416;-70
2023/04/30 10:42:25;;;;;;;8.10;4.57;;;15.80;96.20;;;;;;5016563;28;20783;-70
2023/04/30 10:44:54;;;;;;;7.90;3.73;;;15.90;96.10;;;;;;5014674;28;20475;-70
2023/04/30 10:47:28;;;;;;;6.97;4.30;;;15.90;96.00;;;;;;5017353;28;20440;-71
2023/04/30 10:50:03;;;;;;;7.87;4.30;;;15.80;95.80;;;;;;5017381;28;20460;-70
2023/04/30 10:52:31;;;;;;;5.77;3.60;;;15.80;95.80;;;;;;5018104;28;20437;-71
2023/04/30 10:55:04;;;;;;;6.63;3.70;;;15.90;95.90;;;;;;5018953;28;20443;-71
2023/04/30 10:57:40;;;;;;;10.13;4.63;;;15.90;95.90;;;;;;5018538;28;20399;-70
2023/04/30 11:00:25;;;;;;;5.80;3.53;;;15.90;95.90;;;;;;5019409;28;20499;-71
2023/04/30 11:02:57;;;;;;;5.90;3.97;;;15.90;95.80;;;;;;5016982;28;20435;-71
2023/04/30 11:05:37;;;;;;;9.63;4.30;;;16.00;95.90;;;;;;5018104;28;20435;-70
2023/04/30 11:08:06;;;;;;;9.10;4.43;;;16.00;95.70;;;;;;5018647;28;20463;-70
2023/04/30 11:10:35;;;;;;;7.90;5.43;;;16.00;95.70;;;;;;5015078;28;20758;-71
2023/04/30 11:13:06;;;;;;;6.63;4.00;;;16.00;95.70;;;;;;5013461;28;20483;-71
2023/04/30 11:15:39;;;;;;;11.37;5.47;;;16.00;95.60;;;;;;5013777;28;20863;-71
2023/04/30 11:18:08;;;;;;;9.23;4.43;;;16.00;95.60;;;;;;5013965;28;20451;-71
2023/04/30 11:20:40;;;;;;;6.83;3.70;;;15.90;95.30;;;;;;5013475;28;20432;-71
2023/04/30 11:23:12;;;;;;;7.47;4.90;;;15.90;95.90;;;;;;5013490;28;20424;-71
2023/04/30 11:25:48;;;;;;;11.33;7.20;;;15.90;95.60;;;;;;5013412;28;20412;-71
2023/04/30 11:28:18;;;;;;;11.60;5.40;;;15.90;95.60;;;;;;5011814;28;20999;-71
2023/04/30 11:30:54;;;;;;;7.53;4.83;;;15.90;95.50;;;;;;5012324;28;20792;-71
2023/04/30 11:33:24;;;;;;;8.03;4.53;;;15.90;95.40;;;;;;5013291;28;20459;-71
2023/04/30 11:35:53;;;;;;;15.80;7.27;;;15.80;95.50;;;;;;5013191;28;20421;-71
2023/04/30 11:38:22;;;;;;;7.60;4.50;;;15.80;95.60;;;;;;5013422;28;20526;-71
2023/04/30 11:40:53;;;;;;;9.40;3.90;;;15.80;95.70;;;;;;5013331;28;20806;-71
2023/04/30 11:43:23;;;;;;;7.10;4.37;;;15.90;95.60;;;;;;5013475;28;20467;-71
2023/04/30 11:46:06;;;;;;;7.70;4.83;;;15.90;95.60;;;;;;5013148;28;20863;-71
2023/04/30 11:48:36;;;;;;;8.67;4.53;;;15.90;95.50;;;;;;5013181;28;20479;-71
2023/04/30 11:51:14;;;;;;;9.33;4.70;;;15.90;95.70;;;;;;5013032;28;20530;-71
2023/04/30 11:53:43;;;;;;;8.77;4.53;;;15.90;95.70;;;;;;5012936;28;20829;-71
2023/04/30 11:56:12;;;;;;;8.70;4.40;;;15.90;96.00;;;;;;5012881;28;20444;-71
2023/04/30 11:58:40;;;;;;;7.87;4.47;;;16.00;95.50;;;;;;5012933;28;20497;-71
2023/04/30 12:01:09;;;;;;;6.87;4.27;;;15.90;95.20;;;;;;5012877;28;20440;-71
2023/04/30 12:03:42;;;;;;;8.60;4.73;;;15.80;95.30;;;;;;5012910;28;20833;-71
2023/04/30 12:06:12;;;;;;;7.97;4.47;;;15.80;95.30;;;;;;5012870;28;20430;-71
2023/04/30 12:08:42;;;;;;;8.10;4.30;;;15.80;95.50;;;;;;5012801;28;21019;-71
2023/04/30 12:11:24;;;;;;;8.67;4.43;;;15.80;95.50;;;;;;5012740;28;20443;-71
2023/04/30 12:13:57;;;;;;;9.17;4.97;;;15.80;95.30;;;;;;5013180;28;20866;-71
2023/04/30 12:16:25;;;;;;;7.13;4.50;;;15.80;95.40;;;;;;5012960;28;20431;-71
2023/04/30 12:18:54;;;;;;;8.03;4.43;;;15.80;95.60;;;;;;5013490;28;20411;-71
2023/04/30 12:21:23;;;;;;;8.23;4.83;;;15.80;95.60;;;;;;5011485;28;20951;-71
2023/04/30 12:23:51;;;;;;;7.33;4.70;;;15.80;95.80;;;;;;5012830;28;20467;-71
2023/04/30 12:26:23;;;;;;;10.13;6.70;;;15.80;95.60;;;;;;5012716;28;20790;-71
2023/04/30 12:28:55;;;;;;;9.47;7.53;;;15.80;95.70;;;;;;5013233;28;21013;-70
2023/04/30 12:31:24;;;;;;;12.20;7.00;;;15.80;95.80;;;;;;5013052;28;20401;-70
2023/04/30 12:33:55;;;;;;;21.57;12.10;;;15.80;95.90;;;;;;5012471;28;20558;-71
2023/04/30 12:36:31;;;;;;;17.93;12.60;;;15.90;96.10;;;;;;5013194;28;20403;-71
2023/04/30 12:39:17;;;;;;;8.37;4.87;;;15.90;96.00;;;;;;5014091;28;20901;-71
2023/04/30 12:41:48;;;;;;;7.93;4.30;;;15.90;95.70;;;;;;5016296;28;20442;-71
2023/04/30 12:44:18;;;;;;;7.67;4.83;;;15.90;95.70;;;;;;5016321;28;20478;-70
2023/04/30 12:46:47;;;;;;;9.40;5.20;;;15.90;95.80;;;;;;5016093;28;20414;-70
2023/04/30 12:49:25;;;;;;;9.37;4.83;;;15.90;95.70;;;;;;5016078;28;20526;-71
2023/04/30 12:52:00;;;;;;;7.37;4.20;;;15.80;95.60;;;;;;5016260;28;20928;-71
2023/04/30 12:54:30;;;;;;;7.30;4.00;;;15.80;95.60;;;;;;5016196;28;20467;-72
2023/04/30 12:57:02;;;;;;;6.30;4.60;;;15.80;95.50;;;;;;5015927;28;20845;-71
2023/04/30 12:59:30;;;;;;;7.47;3.83;;;15.80;95.50;;;;;;5016052;28;20767;-71
2023/04/30 13:02:07;;;;;;;7.33;3.87;;;15.80;95.50;;;;;;5015883;28;20531;-71